Time;durP1;ratioP1;P1;durP2;ratioP2;P2;SDS_P1;SDS_P2;PMS_P1;PMS_P2;Temp;Humidity;BMP_temperature;BMP_pressure;BME280_temperature;BME280_humidity;BME280_pressure;Samples;Min_cycle;Max_cycle;Signal;HPM_P1;HPM_P2
2022/08/01 00:01:53;;;;;;;2.60;2.00;;;;;;;19.60;74.22;100446.56;4986813;28;20227;-72
2022/08/01 00:04:20;;;;;;;1.70;1.60;;;;;;;19.59;74.71;100439.56;4987471;28;20233;-71
2022/08/01 00:06:47;;;;;;;1.77;1.67;;;;;;;19.57;75.01;100444.13;4970766;28;20233;-71
2022/08/01 00:09:14;;;;;;;1.97;1.80;;;;;;;19.55;74.94;100439.91;4986078;28;20626;-71
2022/08/01 00:11:41;;;;;;;2.20;2.00;;;;;;;19.54;75.52;100440.84;4987147;28;20565;-71
2022/08/01 00:14:10;;;;;;;2.00;1.80;;;;;;;19.56;74.62;100438.94;4993261;28;20756;-71
2022/08/01 00:16:36;;;;;;;2.70;2.00;;;;;;;19.56;74.99;100438.94;4982033;28;20494;-71
2022/08/01 00:19:03;;;;;;;2.20;1.93;;;;;;;19.55;75.72;100434.63;4987880;28;20268;-71
2022/08/01 00:21:29;;;;;;;2.10;1.90;;;;;;;19.53;75.93;100433.88;4991804;28;20229;-72
2022/08/01 00:23:56;;;;;;;2.97;1.90;;;;;;;19.49;75.89;100423.50;4987968;28;20564;-71
2022/08/01 00:26:24;;;;;;;2.20;2.00;;;;;;;19.47;75.95;100420.09;4993265;28;20536;-71
2022/08/01 00:28:50;;;;;;;1.80;1.70;;;;;;;19.42;76.96;100422.22;4991627;28;20200;-71
2022/08/01 00:31:17;;;;;;;1.90;1.80;;;;;;;19.41;76.68;100417.03;4988363;28;20217;-71
2022/08/01 00:33:43;;;;;;;2.00;1.80;;;;;;;19.38;76.97;100414.56;4994045;28;20208;-71
2022/08/01 00:36:09;;;;;;;1.80;1.70;;;;;;;19.33;77.35;100422.81;4985898;28;20203;-71
2022/08/01 00:38:36;;;;;;;1.93;1.77;;;;;;;19.29;77.79;100418.66;4993582;28;20202;-71
2022/08/01 00:41:03;;;;;;;4.37;2.03;;;;;;;19.25;78.54;100423.31;4989889;28;20208;-71
2022/08/01 00:43:30;;;;;;;2.47;2.17;;;;;;;19.20;78.52;100422.75;4989600;28;20192;-71
2022/08/01 00:45:57;;;;;;;2.00;1.80;;;;;;;19.16;78.77;100423.09;4988919;28;20205;-71
2022/08/01 00:48:23;;;;;;;1.70;1.60;;;;;;;19.11;79.18;100426.84;4994217;28;20216;-71
2022/08/01 00:50:50;;;;;;;1.83;1.73;;;;;;;19.09;79.37;100433.19;4987653;28;20212;-71
2022/08/01 00:53:16;;;;;;;2.07;1.60;;;;;;;19.05;79.82;100435.19;4994500;28;20229;-71
2022/08/01 00:55:43;;;;;;;1.80;1.70;;;;;;;19.01;80.19;100425.75;4988976;28;20686;-71
2022/08/01 00:58:10;;;;;;;2.10;1.80;;;;;;;18.97;80.49;100428.72;4990240;28;20565;-71
2022/08/01 01:00:37;;;;;;;2.07;1.87;;;;;;;18.91;80.45;100427.31;4996568;28;20204;-71
2022/08/01 01:03:04;;;;;;;1.70;1.60;;;;;;;18.86;81.62;100422.31;4991523;28;20232;-71
2022/08/01 01:05:36;;;;;;;2.10;1.90;;;;;;;18.80;82.17;100419.19;4995887;28;20217;-71
2022/08/01 01:08:08;;;;;;;2.07;1.90;;;;;;;18.76;82.87;100425.63;4987923;28;20228;-71
2022/08/01 01:10:43;;;;;;;2.47;2.00;;;;;;;18.72;83.05;100424.97;4990052;28;20204;-71
2022/08/01 01:13:13;;;;;;;2.30;2.10;;;;;;;18.69;83.96;100425.16;4987243;28;20213;-71
2022/08/01 01:15:46;;;;;;;2.00;1.80;;;;;;;18.63;85.21;100417.63;4995596;28;20203;-71
2022/08/01 01:18:18;;;;;;;2.03;1.93;;;;;;;18.63;85.11;100422.91;4992192;28;20201;-71
2022/08/01 01:20:47;;;;;;;2.20;1.87;;;;;;;18.61;84.91;100425.63;4990679;28;20197;-71
2022/08/01 01:23:31;;;;;;;3.47;2.10;;;;;;;18.61;84.98;100424.78;4983116;28;20957;-71
2022/08/01 01:26:22;;;;;;;2.00;1.80;;;;;;;18.62;85.94;100422.03;4992507;28;20260;-71
2022/08/01 01:29:09;;;;;;;1.97;1.70;;;;;;;18.63;86.17;100422.91;4988910;28;20205;-71
2022/08/01 01:31:43;;;;;;;2.90;2.10;;;;;;;18.63;86.30;100431.66;4988854;28;20433;-71
2022/08/01 01:34:13;;;;;;;3.70;1.80;;;;;;;18.62;86.20;100429.13;4989244;28;20390;-71
2022/08/01 01:36:41;;;;;;;2.63;2.10;;;;;;;18.64;86.67;100427.22;5001063;28;20662;-71
2022/08/01 01:39:08;;;;;;;2.40;2.00;;;;;;;18.59;87.10;100421.38;4991135;28;20678;-71
2022/08/01 01:41:37;;;;;;;2.73;1.70;;;;;;;18.57;87.24;100421.47;4992147;28;20263;-71
2022/08/01 01:44:07;;;;;;;2.10;1.90;;;;;;;18.53;86.99;100426.09;4981334;28;20279;-71
2022/08/01 01:46:34;;;;;;;2.20;1.97;;;;;;;18.50;87.31;100423.69;4989930;28;20205;-71
2022/08/01 01:49:02;;;;;;;2.37;1.83;;;;;;;18.47;87.08;100415.94;4986831;28;20403;-71
2022/08/01 01:51:30;;;;;;;1.70;1.60;;;;;;;18.45;89.32;100422.25;4989276;28;20515;-71
2022/08/01 01:53:58;;;;;;;1.83;1.70;;;;;;;18.41;89.10;100423.38;4988522;28;20209;-71
2022/08/01 01:56:26;;;;;;;4.07;2.10;;;;;;;18.37;89.10;100417.44;4996698;28;20201;-71
2022/08/01 01:58:55;;;;;;;2.47;1.63;;;;;;;18.37;90.20;100424.53;4989724;28;20733;-71
2022/08/01 02:01:26;;;;;;;1.90;1.73;;;;;;;18.32;90.59;100420.38;4994444;28;20760;-71
2022/08/01 02:03:54;;;;;;;2.10;1.90;;;;;;;18.30;90.54;100424.91;4993135;28;20203;-71
2022/08/01 02:06:22;;;;;;;3.00;2.13;;;;;;;18.31;90.54;100428.38;4986487;28;20280;-71
2022/08/01 02:08:49;;;;;;;2.17;1.70;;;;;;;18.31;91.21;100421.31;4997008;28;20211;-71
2022/08/01 02:11:18;;;;;;;1.70;1.60;;;;;;;18.33;90.30;100427.34;5002558;28;20233;-71
2022/08/01 02:13:48;;;;;;;1.97;1.77;;;;;;;18.33;91.28;100427.34;4992480;28;20658;-71
2022/08/01 02:16:17;;;;;;;2.20;1.90;;;;;;;18.34;92.42;100426.38;4997565;28;20189;-71
2022/08/01 02:18:45;;;;;;;1.70;1.60;;;;;;;18.35;91.72;100430.75;4992187;28;20208;-71
2022/08/01 02:21:15;;;;;;;1.87;1.67;;;;;;;18.37;91.50;100430.66;4994765;28;20239;-71
2022/08/01 02:23:43;;;;;;;2.50;1.80;;;;;;;18.37;92.51;100429.81;4989609;28;20208;-71
2022/08/01 02:26:14;;;;;;;2.87;1.80;;;;;;;18.38;92.32;100426.22;4995053;28;20227;-71
2022/08/01 02:28:46;;;;;;;1.77;1.60;;;;;;;18.40;91.98;100427.84;4996265;28;20209;-71
2022/08/01 02:31:15;;;;;;;2.53;1.90;;;;;;;18.41;92.18;100431.31;4991957;28;20624;-71
2022/08/01 02:33:43;;;;;;;3.00;1.70;;;;;;;18.38;93.46;100423.56;4985462;28;20205;-71
2022/08/01 02:36:13;;;;;;;2.20;1.53;;;;;;;18.37;93.03;100425.38;4992009;28;20203;-71
2022/08/01 02:38:43;;;;;;;1.60;1.50;;;;;;;18.38;92.61;100418.28;4997691;28;20452;-71
2022/08/01 02:41:13;;;;;;;1.70;1.50;;;;;;;18.38;93.91;100423.56;4993928;28;20201;-71
2022/08/01 02:43:46;;;;;;;1.90;1.60;;;;;;;18.35;93.38;100422.81;4989206;28;20588;-71
2022/08/01 02:46:19;;;;;;;2.17;1.40;;;;;;;18.36;93.39;100418.38;4997630;28;20219;-71
2022/08/01 02:48:48;;;;;;;1.93;1.70;;;;;;;18.37;93.30;100416.63;4990983;28;20205;-71
2022/08/01 02:51:17;;;;;;;2.63;1.80;;;;;;;18.39;93.03;100422.66;4967424;28;20322;-71
2022/08/01 02:53:46;;;;;;;1.50;1.40;;;;;;;18.39;93.61;100417.38;4988937;28;20209;-71
2022/08/01 02:56:14;;;;;;;2.43;1.73;;;;;;;18.38;93.35;100424.44;5002729;28;20207;-71
2022/08/01 02:58:43;;;;;;;1.90;1.70;;;;;;;18.39;93.62;100428.75;4991157;28;20193;-71
2022/08/01 03:01:11;;;;;;;1.80;1.70;;;;;;;18.40;93.13;100424.31;4998393;28;20197;-71
2022/08/01 03:03:38;;;;;;;2.03;1.73;;;;;;;18.38;93.42;100421.81;4993532;28;20404;-71
2022/08/01 03:06:05;;;;;;;1.83;1.50;;;;;;;18.38;93.94;100420.94;4999907;28;20212;-71
2022/08/01 03:08:35;;;;;;;3.30;1.77;;;;;;;18.35;95.04;100427.25;4990590;28;20204;-71
2022/08/01 03:11:03;;;;;;;1.63;1.33;;;;;;;18.34;93.96;100423.75;4989101;28;20201;-71
2022/08/01 03:13:31;;;;;;;2.03;1.60;;;;;;;18.33;94.58;100430.00;4993743;28;20211;-71
2022/08/01 03:15:58;;;;;;;2.57;1.93;;;;;;;18.32;94.41;100428.28;4992102;28;20193;-71
2022/08/01 03:18:26;;;;;;;2.30;1.70;;;;;;;18.32;94.18;100433.56;5000225;28;20216;-71
2022/08/01 03:20:56;;;;;;;1.63;1.53;;;;;;;18.32;93.88;100433.56;5002878;28;20570;-71
2022/08/01 03:23:24;;;;;;;1.83;1.70;;;;;;;18.31;94.49;100436.28;4996333;28;20561;-71
2022/08/01 03:25:53;;;;;;;2.97;1.73;;;;;;;18.30;95.67;100440.72;4990989;28;20213;-71
2022/08/01 03:28:22;;;;;;;2.10;1.90;;;;;;;18.26;95.47;100438.41;5002540;28;20530;-71
2022/08/01 03:30:49;;;;;;;2.00;1.80;;;;;;;18.25;94.59;100445.44;4990875;28;20209;-71
2022/08/01 03:33:16;;;;;;;1.83;1.67;;;;;;;18.27;94.13;100450.63;4996384;28;20224;-71
2022/08/01 03:35:47;;;;;;;4.00;1.53;;;;;;;18.25;94.55;100436.69;4997988;28;20642;-71
2022/08/01 03:38:19;;;;;;;2.80;1.53;;;;;;;18.25;94.49;100448.06;4994628;28;20227;-71
2022/08/01 03:40:50;;;;;;;2.17;1.67;;;;;;;18.24;95.27;100445.53;4991728;28;20209;-71
2022/08/01 03:43:23;;;;;;;1.60;1.50;;;;;;;18.23;94.79;100452.59;4993391;28;20242;-71
2022/08/01 03:45:53;;;;;;;1.90;1.60;;;;;;;18.22;95.00;100450.91;4999704;28;20204;-71
2022/08/01 03:48:29;;;;;;;2.73;1.70;;;;;;;18.19;95.84;100445.81;4999110;28;20506;-71
2022/08/01 03:50:57;;;;;;;1.77;1.67;;;;;;;18.18;95.01;100446.75;4995726;28;20735;-71
2022/08/01 03:53:26;;;;;;;2.00;1.80;;;;;;;18.18;95.57;100444.13;4995248;28;20717;-71
2022/08/01 03:55:54;;;;;;;2.53;1.90;;;;;;;18.15;95.50;100442.53;4996618;28;20673;-71
2022/08/01 03:58:22;;;;;;;2.00;1.70;;;;;;;18.11;96.09;100445.44;4997630;28;20201;-71
2022/08/01 04:00:50;;;;;;;1.67;1.57;;;;;;;18.07;97.18;100451.84;4991218;28;20201;-71
2022/08/01 04:03:17;;;;;;;2.17;1.90;;;;;;;18.02;98.11;100446.00;4990636;28;20220;-71
2022/08/01 04:05:44;;;;;;;2.47;1.60;;;;;;;17.95;99.20;100446.34;4975674;28;20204;-71
2022/08/01 04:08:11;;;;;;;2.43;1.80;;;;;;;17.91;98.88;100452.75;5001961;28;20197;-71
2022/08/01 04:10:38;;;;;;;3.10;1.50;;;;;;;17.89;98.83;100448.53;4992545;28;20254;-70
2022/08/01 04:13:04;;;;;;;1.83;1.60;;;;;;;17.85;99.06;100446.97;4998463;28;20221;-71
2022/08/01 04:15:32;;;;;;;1.63;1.50;;;;;;;17.83;99.83;100460.22;4984573;28;20224;-72
2022/08/01 04:17:59;;;;;;;2.43;1.77;;;;;;;17.82;99.86;100460.31;4997665;28;20196;-71
2022/08/01 04:20:26;;;;;;;2.00;1.80;;;;;;;17.82;99.66;100455.91;4998670;28;20201;-72
2022/08/01 04:22:52;;;;;;;2.13;1.93;;;;;;;17.85;99.91;100457.50;5001119;28;20234;-71
2022/08/01 04:25:25;;;;;;;3.60;1.70;;;;;;;17.91;100.00;100460.66;4979987;28;20205;-71
2022/08/01 04:27:53;;;;;;;4.90;1.80;;;;;;;18.04;100.00;100458.13;4992635;28;20221;-72
2022/08/01 04:30:23;;;;;;;2.03;1.87;;;;;;;18.18;100.00;100462.59;4993499;28;20201;-72
2022/08/01 04:32:54;;;;;;;2.40;1.80;;;;;;;18.30;100.00;100467.13;4998081;28;20225;-73
2022/08/01 04:35:21;;;;;;;1.90;1.70;;;;;;;18.41;100.00;100473.53;4997553;28;20190;-71
2022/08/01 04:37:50;;;;;;;2.33;1.77;;;;;;;18.49;99.75;100468.66;4999447;28;20248;-71
2022/08/01 04:40:18;;;;;;;2.20;1.87;;;;;;;18.62;100.00;100468.72;4994611;28;20675;-72
2022/08/01 04:42:45;;;;;;;2.43;1.90;;;;;;;18.70;99.32;100471.75;4990571;28;20224;-71
2022/08/01 04:45:12;;;;;;;1.90;1.53;;;;;;;18.74;98.45;100473.25;4998471;28;20203;-71
2022/08/01 04:47:40;;;;;;;2.77;2.00;;;;;;;18.77;98.20;100472.19;4990713;28;20319;-71
2022/08/01 04:50:10;;;;;;;1.97;1.67;;;;;;;18.77;98.49;100480.97;4991372;28;20295;-71
2022/08/01 04:52:38;;;;;;;2.10;1.63;;;;;;;18.80;99.01;100480.75;5001460;28;20209;-71
2022/08/01 04:55:06;;;;;;;1.40;1.30;;;;;;;18.86;99.39;100483.06;4995526;28;20673;-71
2022/08/01 04:57:36;;;;;;;1.70;1.60;;;;;;;18.95;99.76;100478.16;4990052;28;20597;-71
2022/08/01 05:00:03;;;;;;;1.90;1.70;;;;;;;19.05;99.83;100480.09;4997492;28;20589;-72
2022/08/01 05:02:30;;;;;;;1.70;1.40;;;;;;;19.14;98.52;100481.31;4996073;28;20220;-71
2022/08/01 05:04:57;;;;;;;3.33;1.60;;;;;;;19.28;97.14;100496.28;4999308;28;20721;-71
2022/08/01 05:07:25;;;;;;;2.53;1.40;;;;;;;19.41;99.07;100485.75;5000663;28;20224;-72
2022/08/01 05:09:52;;;;;;;3.07;1.87;;;;;;;19.53;98.51;100481.47;4990669;28;20201;-71
2022/08/01 05:12:19;;;;;;;1.83;1.67;;;;;;;19.67;97.08;100484.03;4991693;28;20689;-71
2022/08/01 05:14:47;;;;;;;1.80;1.63;;;;;;;19.85;93.49;100490.75;4991628;28;20228;-72
2022/08/01 05:17:13;;;;;;;1.67;1.57;;;;;;;20.08;90.74;100490.16;4995656;28;20197;-72
2022/08/01 05:19:42;;;;;;;2.13;1.93;;;;;;;20.35;90.55;100490.94;4993427;28;20201;-72
2022/08/01 05:22:10;;;;;;;2.10;1.60;;;;;;;20.55;88.30;100504.56;4989962;28;20237;-72
2022/08/01 05:24:40;;;;;;;1.50;1.40;;;;;;;20.66;87.78;100496.75;5003367;28;20220;-72
2022/08/01 05:27:08;;;;;;;1.60;1.40;;;;;;;20.68;86.16;100508.06;4991579;28;20607;-71
2022/08/01 05:29:35;;;;;;;1.60;1.47;;;;;;;20.71;86.70;100494.63;4982853;28;20564;-72
2022/08/01 05:32:02;;;;;;;1.70;1.60;;;;;;;20.67;86.17;100495.81;4990789;28;20236;-72
2022/08/01 05:34:29;;;;;;;1.67;1.40;;;;;;;20.70;87.47;100500.91;4992697;28;20209;-72
2022/08/01 05:36:55;;;;;;;2.07;1.40;;;;;;;20.68;85.97;100500.13;4988111;28;20221;-71
2022/08/01 05:39:21;;;;;;;3.10;1.60;;;;;;;20.70;85.79;100494.72;4989305;28;20293;-71
2022/08/01 05:41:49;;;;;;;1.53;1.40;;;;;;;20.77;86.96;100498.63;4994057;28;20229;-71
2022/08/01 05:44:16;;;;;;;1.60;1.50;;;;;;;20.77;87.58;100488.91;4992363;28;20587;-71
2022/08/01 05:46:43;;;;;;;1.40;1.30;;;;;;;20.81;86.83;100489.53;4989242;28;20225;-72
2022/08/01 05:49:09;;;;;;;1.70;1.60;;;;;;;20.86;87.53;100487.41;4998252;28;20211;-71
2022/08/01 05:51:35;;;;;;;2.00;1.80;;;;;;;20.93;89.61;100495.72;5002010;28;20247;-72
2022/08/01 05:54:02;;;;;;;2.50;1.70;;;;;;;20.94;87.38;100492.97;4997917;28;20676;-72
2022/08/01 05:56:28;;;;;;;1.60;1.40;;;;;;;20.99;87.76;100488.19;4992663;28;20201;-72
2022/08/01 05:58:57;;;;;;;1.47;1.20;;;;;;;21.04;88.27;100492.34;4996292;28;20220;-72
2022/08/01 06:01:23;;;;;;;1.33;1.20;;;;;;;21.07;87.85;100492.09;4996475;28;20628;-71
2022/08/01 06:03:50;;;;;;;1.83;1.47;;;;;;;21.06;88.95;100490.41;4988595;28;20280;-72
2022/08/01 06:06:16;;;;;;;1.65;1.30;;;;;;;21.04;88.05;100493.19;4997212;28;20211;-72
2022/08/01 06:08:43;;;;;;;1.50;1.30;;;;;;;21.03;88.16;100498.59;4991533;28;20568;-72
2022/08/01 06:11:09;;;;;;;1.50;1.40;;;;;;;21.03;88.06;100502.06;4991665;28;20205;-72
2022/08/01 06:13:35;;;;;;;2.03;1.47;;;;;;;21.06;88.31;100495.72;4987716;28;20209;-72
2022/08/01 06:16:03;;;;;;;1.60;1.50;;;;;;;21.03;89.12;100494.13;4989851;28;20808;-72
2022/08/01 06:18:30;;;;;;;1.70;1.60;;;;;;;21.04;88.24;100493.19;4988926;28;20197;-72
2022/08/01 06:20:57;;;;;;;1.80;1.70;;;;;;;21.09;89.00;100490.19;4996780;28;20685;-72
2022/08/01 06:23:23;;;;;;;1.53;1.40;;;;;;;21.18;87.76;100502.78;4991888;28;20209;-73
2022/08/01 06:25:53;;;;;;;2.33;1.60;;;;;;;21.27;89.60;100495.97;4990048;28;20237;-72
2022/08/01 06:28:19;;;;;;;1.57;1.30;;;;;;;21.26;89.03;100504.88;4995885;28;20227;-72
2022/08/01 06:30:46;;;;;;;1.40;1.30;;;;;;;21.26;88.57;100502.22;4996472;28;20205;-72
2022/08/01 06:33:14;;;;;;;2.70;1.37;;;;;;;21.30;89.21;100504.53;4995477;28;20224;-72
2022/08/01 06:35:40;;;;;;;1.47;1.30;;;;;;;21.38;88.84;100502.16;4976487;28;20212;-72
2022/08/01 06:38:07;;;;;;;1.77;1.47;;;;;;;21.45;88.06;100514.97;4990878;28;20205;-72
2022/08/01 06:40:35;;;;;;;1.60;1.50;;;;;;;21.46;87.63;100506.06;4991149;28;20189;-72
2022/08/01 06:43:01;;;;;;;2.10;1.63;;;;;;;21.56;88.66;100517.69;4995806;28;20238;-72
2022/08/01 06:45:27;;;;;;;2.35;1.70;;;;;;;21.56;87.54;100515.06;4991646;28;20205;-72
2022/08/01 06:47:54;;;;;;;4.10;1.70;;;;;;;21.64;87.75;100523.28;5001394;28;20228;-72
2022/08/01 06:50:21;;;;;;;1.40;1.30;;;;;;;21.68;87.32;100523.91;4998342;28;20212;-71
2022/08/01 06:52:48;;;;;;;2.22;1.50;;;;;;;21.71;86.44;100527.19;4996975;28;20224;-72
2022/08/01 06:55:15;;;;;;;2.13;1.50;;;;;;;21.73;85.97;100527.91;4992523;28;20573;-72
2022/08/01 06:57:49;;;;;;;1.60;1.50;;;;;;;21.82;86.44;100531.69;4990496;28;20209;-72
2022/08/01 07:00:18;;;;;;;1.50;1.40;;;;;;;21.94;86.08;100535.22;4997148;28;20201;-72
2022/08/01 07:02:45;;;;;;;1.52;1.42;;;;;;;22.00;86.25;100526.78;4998859;28;20232;-72
2022/08/01 07:05:11;;;;;;;1.90;1.60;;;;;;;21.98;86.23;100523.41;4997613;28;20206;-72
2022/08/01 07:07:39;;;;;;;2.33;1.50;;;;;;;22.02;85.98;100529.31;4996506;28;20641;-72
2022/08/01 07:10:08;;;;;;;1.90;1.70;;;;;;;21.98;85.96;100528.72;4999999;28;20666;-72
2022/08/01 07:12:36;;;;;;;1.73;1.63;;;;;;;22.02;86.56;100529.31;4978269;28;20224;-72
2022/08/01 07:15:03;;;;;;;2.78;1.38;;;;;;;22.01;85.66;100530.31;5000229;28;20271;-72
2022/08/01 07:17:29;;;;;;;1.60;1.50;;;;;;;22.05;85.64;100529.94;4985961;28;20534;-72
2022/08/01 07:19:56;;;;;;;2.20;1.45;;;;;;;22.16;86.21;100530.94;4996990;28;20654;-72
2022/08/01 07:22:22;;;;;;;2.75;1.73;;;;;;;22.19;85.79;100536.84;4993462;28;20630;-72
2022/08/01 07:24:50;;;;;;;1.92;1.48;;;;;;;22.24;84.95;100529.38;4984876;28;20777;-72
2022/08/01 07:27:16;;;;;;;1.65;1.55;;;;;;;22.41;86.47;100521.94;4996772;28;20205;-72
2022/08/01 07:29:43;;;;;;;1.40;1.30;;;;;;;22.43;84.86;100525.38;4993385;28;20205;-72
2022/08/01 07:32:09;;;;;;;1.42;1.30;;;;;;;22.46;84.16;100533.06;5000722;28;20228;-72
2022/08/01 07:34:36;;;;;;;1.30;1.20;;;;;;;22.54;84.64;100535.16;4980361;28;20205;-72
2022/08/01 07:37:02;;;;;;;1.60;1.50;;;;;;;22.57;83.38;100540.22;4997852;28;20240;-72
2022/08/01 07:39:29;;;;;;;1.63;1.52;;;;;;;22.70;83.38;100538.28;4998064;28;20213;-74
2022/08/01 07:41:57;;;;;;;1.67;1.30;;;;;;;22.84;84.11;100538.03;4995313;28;20240;-73
2022/08/01 07:44:24;;;;;;;1.48;1.38;;;;;;;22.76;82.56;100548.44;4998434;28;20193;-73
2022/08/01 07:46:50;;;;;;;1.25;1.15;;;;;;;22.68;84.05;100542.88;4996447;28;20212;-73
2022/08/01 07:49:16;;;;;;;1.40;1.30;;;;;;;22.66;83.09;100544.81;4999098;28;20519;-73
2022/08/01 07:51:43;;;;;;;1.40;1.27;;;;;;;22.61;84.04;100533.69;4997302;28;20240;-73
2022/08/01 07:54:09;;;;;;;1.50;1.23;;;;;;;22.64;84.62;100528.16;4996387;28;20693;-73
2022/08/01 07:56:35;;;;;;;1.73;1.38;;;;;;;22.82;85.32;100539.97;4989857;28;20209;-73
2022/08/01 07:59:03;;;;;;;2.20;1.52;;;;;;;22.88;82.76;100541.28;4997253;28;20213;-73
2022/08/01 08:01:29;;;;;;;1.40;1.30;;;;;;;23.04;82.58;100544.44;4991783;28;20229;-73
2022/08/01 08:03:56;;;;;;;1.48;1.38;;;;;;;23.24;80.30;100545.53;4991069;28;20205;-73
2022/08/01 08:06:22;;;;;;;1.23;1.13;;;;;;;23.40;80.01;100544.28;5009269;28;20201;-73
2022/08/01 08:08:49;;;;;;;1.40;1.30;;;;;;;23.52;80.06;100537.97;5003141;28;20209;-73
2022/08/01 08:11:15;;;;;;;1.60;1.33;;;;;;;23.69;81.34;100533.06;4995907;28;20209;-73
2022/08/01 08:13:41;;;;;;;1.50;1.40;;;;;;;23.85;79.38;100537.97;4997139;28;20201;-73
2022/08/01 08:16:09;;;;;;;1.60;1.50;;;;;;;23.79;77.13;100534.81;5000022;28;20562;-73
2022/08/01 08:18:38;;;;;;;1.45;1.35;;;;;;;23.88;79.75;100525.25;5004969;28;20200;-73
2022/08/01 08:21:04;;;;;;;1.58;1.38;;;;;;;23.81;78.19;100524.06;5008611;28;20211;-73
2022/08/01 08:26:14;;;;;;;1.50;1.40;;;;;;;24.24;76.41;100536.44;4993807;28;20677;-73
2022/08/01 08:28:41;;;;;;;1.50;1.40;;;;;;;24.49;77.01;100532.50;4991324;28;20696;-73
2022/08/01 08:31:09;;;;;;;4.35;1.45;;;;;;;24.61;74.61;100530.66;5004596;28;20204;-73
2022/08/01 08:33:35;;;;;;;1.65;1.55;;;;;;;24.59;73.53;100531.75;5004650;28;20220;-73
2022/08/01 08:36:02;;;;;;;1.30;1.20;;;;;;;24.42;74.79;100547.34;4987001;28;20215;-73
2022/08/01 08:38:28;;;;;;;1.50;1.40;;;;;;;24.12;75.53;100541.00;4995856;28;20212;-73
2022/08/01 08:40:56;;;;;;;4.45;1.05;;;;;;;23.99;75.41;100540.31;4990942;28;20208;-74
2022/08/01 08:43:23;;;;;;;1.08;0.98;;;;;;;23.80;75.84;100546.34;4986786;28;20220;-73
2022/08/01 08:45:50;;;;;;;1.13;1.02;;;;;;;23.67;75.72;100541.16;4990310;28;20256;-72
2022/08/01 08:48:18;;;;;;;1.17;1.10;;;;;;;23.55;76.71;100551.03;4988392;28;20217;-73
2022/08/01 08:50:46;;;;;;;1.13;1.02;;;;;;;23.44;77.22;100551.03;4983597;28;20200;-73
2022/08/01 08:53:14;;;;;;;1.00;0.90;;;;;;;23.35;77.52;100559.78;4988232;28;20224;-73
2022/08/01 08:55:42;;;;;;;0.95;0.95;;;;;;;23.26;77.94;100556.03;4987593;28;20209;-72
2022/08/01 08:58:13;;;;;;;1.13;1.00;;;;;;;23.13;78.55;100553.53;4984683;28;20201;-73
2022/08/01 09:00:39;;;;;;;0.93;0.93;;;;;;;23.06;78.45;100568.28;4996839;28;20211;-73
2022/08/01 09:03:06;;;;;;;0.82;0.82;;;;;;;23.18;78.24;100561.13;4993698;28;20240;-72
2022/08/01 09:05:34;;;;;;;0.90;0.90;;;;;;;23.20;78.85;100557.38;4994358;28;20200;-73
2022/08/01 09:08:00;;;;;;;1.13;1.02;;;;;;;23.34;79.38;100564.25;4989672;28;20517;-73
2022/08/01 09:10:27;;;;;;;1.20;1.10;;;;;;;23.42;77.31;100563.63;4985326;28;20209;-72
2022/08/01 09:13:10;;;;;;;1.40;1.00;;;;;;;23.62;77.34;100565.50;4985126;28;20221;-72
2022/08/01 09:15:44;;;;;;;0.80;0.80;;;;;;;23.85;78.62;100553.94;5000606;28;20280;-73
2022/08/01 09:18:28;;;;;;;1.10;1.00;;;;;;;23.96;76.72;100561.91;4990961;28;20252;-73
2022/08/01 09:21:10;;;;;;;1.00;0.90;;;;;;;24.01;75.45;100557.03;4986741;28;20511;-74
2022/08/01 09:23:39;;;;;;;1.25;1.00;;;;;;;24.17;76.02;100557.44;4988228;28;20688;-73
2022/08/01 09:26:06;;;;;;;1.25;1.15;;;;;;;24.22;73.71;100558.84;4999454;28;20275;-74
2022/08/01 09:28:33;;;;;;;1.98;1.42;;;;;;;24.18;73.60;100561.75;4986620;28;20216;-74
2022/08/01 09:31:06;;;;;;;0.70;0.70;;;;;;;24.34;74.27;100558.66;4996647;28;20565;-72
2022/08/01 09:33:48;;;;;;;1.45;1.20;;;;;;;24.62;73.87;100564.28;4998643;28;20204;-73
2022/08/01 09:36:16;;;;;;;1.05;0.95;;;;;;;24.82;72.35;100562.59;4985165;28;20673;-73
2022/08/01 09:38:42;;;;;;;0.90;0.90;;;;;;;24.80;70.79;100571.69;4990418;28;20197;-73
2022/08/01 09:41:11;;;;;;;1.20;1.08;;;;;;;24.85;70.55;100583.63;4991258;28;20209;-74
2022/08/01 09:43:38;;;;;;;1.85;1.20;;;;;;;24.83;70.26;100576.75;4986691;28;20213;-74
2022/08/01 09:46:09;;;;;;;1.00;0.93;;;;;;;25.08;70.89;100576.28;4991637;28;20217;-72
2022/08/01 09:48:36;;;;;;;1.30;1.20;;;;;;;25.24;70.12;100577.59;4979510;28;20220;-72
2022/08/01 09:51:03;;;;;;;1.00;0.90;;;;;;;25.11;69.24;100584.00;4989882;28;20208;-74
2022/08/01 09:53:43;;;;;;;1.45;1.13;;;;;;;25.25;71.06;100588.16;4989045;28;20241;-73
2022/08/01 09:56:11;;;;;;;1.08;1.05;;;;;;;25.24;71.86;100588.25;4995446;28;20721;-73
2022/08/01 09:58:50;;;;;;;0.88;0.88;;;;;;;25.19;71.87;100588.69;4991682;28;20200;-74
2022/08/01 10:01:17;;;;;;;0.80;0.80;;;;;;;25.25;72.37;100585.50;4991098;28;20201;-74
2022/08/01 10:03:43;;;;;;;1.35;1.15;;;;;;;25.18;71.12;100586.97;4997457;28;20205;-74
2022/08/01 10:06:20;;;;;;;0.80;0.80;;;;;;;25.17;72.23;100576.44;4985390;28;20208;-74
2022/08/01 10:08:49;;;;;;;1.92;1.00;;;;;;;25.10;71.48;100581.47;4986518;28;20217;-74
2022/08/01 10:11:15;;;;;;;0.90;0.90;;;;;;;25.00;73.64;100586.78;4983897;28;20197;-73
2022/08/01 10:13:42;;;;;;;1.33;1.10;;;;;;;24.99;74.97;100585.09;4986602;28;20205;-74
2022/08/01 10:16:09;;;;;;;0.82;0.82;;;;;;;25.01;77.28;100580.50;4995639;28;20224;-73
2022/08/01 10:18:39;;;;;;;0.82;0.82;;;;;;;24.86;73.12;100592.50;4989247;28;20200;-74
2022/08/01 10:21:05;;;;;;;1.23;0.80;;;;;;;24.84;73.95;100589.13;4994504;28;20201;-73
2022/08/01 10:23:35;;;;;;;0.80;0.75;;;;;;;24.92;75.02;100583.94;4988200;28;20440;-74
2022/08/01 10:26:06;;;;;;;0.93;0.90;;;;;;;25.30;75.08;100585.09;4990215;28;20209;-74
2022/08/01 10:28:35;;;;;;;1.10;1.00;;;;;;;25.80;72.96;100581.50;4995574;28;20260;-73
2022/08/01 10:31:02;;;;;;;1.00;0.90;;;;;;;26.16;71.13;100577.31;4986315;28;20213;-74
2022/08/01 10:33:29;;;;;;;1.17;1.08;;;;;;;26.51;69.81;100581.19;4983515;28;20206;-74
2022/08/01 10:35:57;;;;;;;0.63;0.63;;;;;;;25.99;69.03;100602.91;4989402;28;20217;-74
2022/08/01 10:38:24;;;;;;;0.73;0.20;;;;;;;24.29;82.00;100611.50;4993378;28;20212;-73
2022/08/01 10:40:51;;;;;;;2.17;0.55;;;;;;;22.05;100.00;100603.44;4991401;28;20214;-75
2022/08/01 10:43:19;;;;;;;0.50;0.50;;;;;;;21.23;100.00;100604.03;4994132;28;20221;-74
2022/08/01 10:45:45;;;;;;;0.45;0.22;;;;;;;20.78;100.00;100607.16;4986970;28;20706;-76
2022/08/01 10:48:17;;;;;;;1.75;0.32;;;;;;;20.48;100.00;100615.38;4994714;28;20568;-75
2022/08/01 10:50:46;;;;;;;0.30;0.17;;;;;;;20.31;100.00;100621.78;4988544;28;20205;-75
2022/08/01 10:53:16;;;;;;;0.10;0.10;;;;;;;20.03;100.00;100633.38;4996928;28;20243;-75
2022/08/01 10:55:51;;;;;;;0.10;0.10;;;;;;;19.92;100.00;100638.53;4995357;28;20198;-74
2022/08/01 10:58:23;;;;;;;0.10;0.10;;;;;;;19.73;100.00;100641.47;4990156;28;20211;-75
2022/08/01 11:01:10;;;;;;;0.93;0.40;;;;;;;19.34;100.00;100645.69;4995193;28;20201;-76
2022/08/01 11:03:36;;;;;;;0.57;0.57;;;;;;;19.27;100.00;100647.88;4995299;28;20196;-74
2022/08/01 11:06:04;;;;;;;0.50;0.50;;;;;;;19.04;100.00;100652.78;4997522;28;20288;-76
2022/08/01 11:08:31;;;;;;;0.40;0.40;;;;;;;19.08;100.00;100648.16;5001170;28;20224;-75
2022/08/01 11:11:01;;;;;;;0.47;0.43;;;;;;;19.12;100.00;100649.69;4995718;28;20200;-76
2022/08/01 11:14:06;;;;;;;0.63;0.63;;;;;;;19.01;100.00;100654.75;4991773;28;20266;-76
2022/08/01 11:16:34;;;;;;;1.80;1.03;;;;;;;19.14;100.00;100660.13;4994033;28;20462;-74
2022/08/01 11:19:01;;;;;;;1.07;0.80;;;;;;;19.24;100.00;100655.97;4995809;28;20212;-76
2022/08/01 11:22:00;;;;;;;0.97;0.87;;;;;;;19.32;100.00;100660.81;5000130;28;20772;-76
2022/08/01 11:24:57;;;;;;;1.30;0.83;;;;;;;19.46;100.00;100655.50;4996051;28;20945;-75
2022/08/01 11:27:25;;;;;;;1.27;1.00;;;;;;;19.56;100.00;100669.84;4993562;28;20606;-76
2022/08/01 11:30:25;;;;;;;1.40;1.00;;;;;;;19.75;100.00;100663.41;4994363;28;20221;-75
2022/08/01 11:32:55;;;;;;;1.30;0.90;;;;;;;20.05;100.00;100663.22;4994719;28;20221;-76
2022/08/01 11:35:24;;;;;;;2.60;1.20;;;;;;;20.18;100.00;100658.00;4997104;28;20207;-77